Time,TemperatureF,DewpointF,PressureIn,WindDirection,WindDirectionDegrees,WindSpeedMPH,WindSpeedGustMPH,Humidity,HourlyPrecipIn,Conditions,Clouds,dailyrainin,SoftwareType,DateUTC
2013-02-23 00:02:00,33.0,31.0,29.94,WSW,247,3.0,6.0,94,0.00,,,0.41,,2013-02-23 05:02:00,
2013-02-23 00:12:00,33.0,31.0,29.94,WSW,247,3.0,6.0,94,0.00,,,0.41,,2013-02-23 05:12:00,
2013-02-23 00:22:00,33.0,32.0,29.94,WNW,292,5.0,8.0,96,0.00,,,0.41,,2013-02-23 05:22:00,
2013-02-23 00:32:00,33.0,31.0,29.94,WNW,292,5.0,9.0,94,0.00,,,0.41,,2013-02-23 05:32:00,
2013-02-23 00:41:00,33.0,31.0,29.94,WNW,292,5.0,9.0,94,0.00,,,0.41,,2013-02-23 05:41:00,
2013-02-23 00:52:00,33.0,32.0,29.93,NW,315,4.0,6.0,95,0.00,,,0.41,,2013-02-23 05:52:00,
2013-02-23 01:01:00,32.0,30.0,29.93,WNW,292,4.0,8.0,94,0.00,,,0.40,,2013-02-23 06:01:00,
2013-02-23 01:11:00,32.0,30.0,29.93,WNW,292,4.0,8.0,94,0.00,,,0.40,,2013-02-23 06:11:00,
2013-02-23 01:22:00,32.0,30.0,29.93,WNW,292,5.0,7.0,94,0.00,,,0.40,,2013-02-23 06:22:00,
2013-02-23 01:31:00,32.0,30.0,29.93,West,270,4.0,6.0,92,0.00,,,0.40,,2013-02-23 06:31:00,
2013-02-23 01:41:00,32.0,30.0,29.93,West,270,4.0,6.0,92,0.00,,,0.40,,2013-02-23 06:41:00,
2013-02-23 01:51:00,32.0,30.0,29.92,West,270,4.0,5.0,92,0.00,,,0.39,,2013-02-23 06:51:00,
2013-02-23 02:01:00,32.0,30.0,29.93,West,270,5.0,9.0,92,0.00,,,0.39,,2013-02-23 07:01:00,
2013-02-23 02:11:00,31.0,29.0,29.93,WNW,292,4.0,7.0,92,0.00,,,0.39,,2013-02-23 07:11:00,
2013-02-23 02:21:00,31.0,29.0,29.93,WNW,292,4.0,7.0,92,0.00,,,0.39,,2013-02-23 07:21:00,
2013-02-23 02:31:00,31.0,29.0,29.94,West,270,4.0,5.0,93,0.00,,,0.39,,2013-02-23 07:31:00,
2013-02-23 02:41:00,31.0,29.0,29.94,West,270,4.0,5.0,93,0.00,,,0.39,,2013-02-23 07:41:00,
2013-02-23 02:51:00,30.0,28.0,29.93,West,270,4.0,6.0,92,0.00,,,0.38,,2013-02-23 07:51:00,
2013-02-23 03:01:00,29.0,27.0,29.92,NNE,22,3.0,6.0,94,0.00,,,0.38,,2013-02-23 08:01:00,
2013-02-23 03:11:00,29.0,27.0,29.92,NNE,22,3.0,6.0,94,0.00,,,0.38,,2013-02-23 08:11:00,
2013-02-23 03:21:00,29.0,28.0,29.92,WNW,292,2.0,4.0,96,0.00,,,0.37,,2013-02-23 08:21:00,
2013-02-23 03:31:00,29.0,28.0,29.92,West,270,1.0,2.0,97,0.00,,,0.37,,2013-02-23 08:31:00,
2013-02-23 03:41:00,29.0,28.0,29.92,West,270,1.0,2.0,97,0.00,,,0.37,,2013-02-23 08:41:00,
2013-02-23 03:52:00,28.0,26.0,29.92,West,270,0.0,0.0,93,0.00,,,0.37,,2013-02-23 08:52:00,
2013-02-23 04:01:00,28.0,27.0,29.92,West,270,1.0,2.0,95,0.00,,,0.37,,2013-02-23 09:01:00,
2013-02-23 04:11:00,28.0,27.0,29.92,West,270,1.0,2.0,95,0.00,,,0.37,,2013-02-23 09:11:00,
2013-02-23 04:21:00,27.0,27.0,29.92,West,270,0.0,0.0,99,0.00,,,0.36,,2013-02-23 09:21:00,
2013-02-23 04:31:00,27.0,27.0,29.91,West,270,0.0,0.0,100,0.00,,,0.36,,2013-02-23 09:31:00,
2013-02-23 04:41:00,27.0,27.0,29.91,West,270,0.0,0.0,100,0.00,,,0.36,,2013-02-23 09:41:00,
2013-02-23 04:52:00,27.0,27.0,29.91,WNW,292,2.0,3.0,98,0.00,,,0.35,,2013-02-23 09:52:00,
2013-02-23 05:01:00,27.0,27.0,29.91,West,270,1.0,1.0,98,0.00,,,0.35,,2013-02-23 10:01:00,
2013-02-23 05:11:00,27.0,27.0,29.90,NW,315,0.0,0.0,98,0.00,,,0.34,,2013-02-23 10:11:00,
2013-02-23 05:21:00,27.0,27.0,29.90,NW,315,0.0,0.0,98,0.00,,,0.34,,2013-02-23 10:21:00,
2013-02-23 05:31:00,27.0,27.0,29.91,NW,315,1.0,2.0,100,0.00,,,0.34,,2013-02-23 10:31:00,
2013-02-23 05:41:00,27.0,27.0,29.91,NW,315,1.0,2.0,100,0.00,,,0.34,,2013-02-23 10:41:00,
2013-02-23 05:51:00,27.0,27.0,29.91,West,270,2.0,4.0,100,0.00,,,0.33,,2013-02-23 10:51:00,
2013-02-23 06:02:00,27.0,27.0,29.92,West,270,1.0,2.0,100,0.00,,,0.33,,2013-02-23 11:02:00,
2013-02-23 06:11:00,27.0,27.0,29.92,West,270,1.0,2.0,100,0.00,,,0.33,,2013-02-23 11:11:00,
2013-02-23 06:21:00,26.0,26.0,29.93,West,270,2.0,5.0,100,0.00,,,0.33,,2013-02-23 11:21:00,
2013-02-23 06:32:00,26.0,26.0,29.93,WNW,292,3.0,5.0,100,0.00,,,0.32,,2013-02-23 11:32:00,
2013-02-23 06:41:00,26.0,26.0,29.93,WNW,292,3.0,5.0,100,0.00,,,0.32,,2013-02-23 11:41:00,
2013-02-23 06:52:00,25.0,25.0,29.93,WNW,292,3.0,5.0,100,0.00,,,0.32,,2013-02-23 11:52:00,
2013-02-23 07:02:00,25.0,25.0,29.93,West,270,1.0,2.0,100,0.00,,,0.31,,2013-02-23 12:02:00,
2013-02-23 07:11:00,25.0,25.0,29.93,West,270,1.0,2.0,100,0.00,,,0.31,,2013-02-23 12:11:00,
2013-02-23 07:21:00,25.0,25.0,29.93,West,270,2.0,4.0,100,0.00,,,0.31,,2013-02-23 12:21:00,
2013-02-23 07:32:00,24.0,24.0,29.93,West,270,2.0,3.0,100,0.00,,,0.30,,2013-02-23 12:32:00,
2013-02-23 07:42:00,24.0,24.0,29.93,West,270,2.0,3.0,100,0.00,,,0.30,,2013-02-23 12:42:00,
2013-02-23 07:52:00,24.0,24.0,29.93,West,270,0.0,0.0,100,0.00,,,0.30,,2013-02-23 12:52:00,
2013-02-23 08:01:00,23.0,23.0,29.93,West,270,0.0,0.0,100,0.00,,,0.30,,2013-02-23 13:01:00,
2013-02-23 08:11:00,22.0,22.0,29.93,West,270,0.0,0.0,100,0.00,,,0.29,,2013-02-23 13:11:00,
2013-02-23 08:22:00,22.0,22.0,29.93,West,270,0.0,0.0,100,0.00,,,0.29,,2013-02-23 13:22:00,
2013-02-23 08:32:00,25.0,25.0,29.93,West,270,0.0,0.0,100,0.00,,,0.28,,2013-02-23 13:32:00,
2013-02-23 08:42:00,27.0,27.0,29.94,WNW,292,1.0,2.0,100,0.00,,,0.28,,2013-02-23 13:42:00,
2013-02-23 08:52:00,27.0,27.0,29.94,WNW,292,1.0,2.0,100,0.00,,,0.28,,2013-02-23 13:52:00,
2013-02-23 09:02:00,28.0,28.0,29.94,WNW,292,1.0,3.0,100,0.00,,,0.27,,2013-02-23 14:02:00,
2013-02-23 09:11:00,30.0,30.0,29.94,NW,315,3.0,4.0,100,0.00,,,0.26,,2013-02-23 14:11:00,
2013-02-23 09:21:00,30.0,30.0,29.94,NW,315,3.0,4.0,100,0.00,,,0.26,,2013-02-23 14:21:00,
2013-02-23 09:32:00,31.0,30.0,29.94,North,360,3.0,6.0,96,0.00,,,0.26,,2013-02-23 14:32:00,
2013-02-23 09:42:00,31.0,30.0,29.94,North,360,3.0,6.0,96,0.00,,,0.26,,2013-02-23 14:42:00,
2013-02-23 09:52:00,32.0,27.0,29.94,NW,315,3.0,5.0,83,0.00,,,0.25,,2013-02-23 14:52:00,
2013-02-23 10:01:00,34.0,29.0,29.94,SW,225,2.0,4.0,81,0.00,,,0.24,,2013-02-23 15:01:00,
2013-02-23 10:11:00,34.0,29.0,29.94,SW,225,2.0,4.0,81,0.00,,,0.24,,2013-02-23 15:11:00,
2013-02-23 10:21:00,35.0,29.0,29.95,WNW,292,1.0,3.0,79,0.00,,,0.22,,2013-02-23 15:21:00,
2013-02-23 10:31:00,35.0,28.0,29.96,NW,315,2.0,6.0,76,0.00,,,0.21,,2013-02-23 15:31:00,
2013-02-23 10:41:00,35.0,28.0,29.96,NW,315,2.0,6.0,76,0.00,,,0.21,,2013-02-23 15:41:00,
2013-02-23 10:52:00,36.0,28.0,29.95,West,270,2.0,4.0,73,0.00,,,0.19,,2013-02-23 15:52:00,
2013-02-23 11:01:00,36.0,28.0,29.95,West,270,3.0,6.0,72,0.00,,,0.18,,2013-02-23 16:01:00,
2013-02-23 11:11:00,36.0,28.0,29.95,West,270,3.0,6.0,72,0.00,,,0.18,,2013-02-23 16:11:00,
2013-02-23 11:21:00,37.0,28.0,29.95,WNW,292,6.0,7.0,69,0.00,,,0.18,,2013-02-23 16:21:00,
2013-02-23 11:31:00,37.0,28.0,29.96,NW,315,0.0,0.0,69,0.00,,,0.18,,2013-02-23 16:31:00,
2013-02-23 11:42:00,37.0,28.0,29.96,NW,315,0.0,0.0,69,0.00,,,0.18,,2013-02-23 16:42:00,
2013-02-23 11:51:00,38.0,27.0,29.95,SSE,157,2.0,4.0,65,0.00,,,0.16,,2013-02-23 16:51:00,
2013-02-23 12:01:00,38.0,28.0,29.94,WNW,292,5.0,8.0,68,0.00,,,0.15,,2013-02-23 17:01:00,
2013-02-23 12:11:00,40.0,31.0,29.94,SE,135,3.0,6.0,71,0.00,,,0.14,,2013-02-23 17:11:00,
2013-02-23 12:21:00,40.0,31.0,29.94,SE,135,3.0,6.0,71,0.00,,,0.14,,2013-02-23 17:21:00,
2013-02-23 12:31:00,41.0,28.0,29.94,West,270,5.0,6.0,60,0.00,,,0.13,,2013-02-23 17:31:00,
2013-02-23 12:41:00,41.0,28.0,29.94,West,270,5.0,6.0,60,0.00,,,0.13,,2013-02-23 17:41:00,
2013-02-23 12:52:00,40.0,29.0,29.95,South,180,4.0,7.0,64,0.00,,,0.13,,2013-02-23 17:52:00,
2013-02-23 13:01:00,41.0,29.0,29.94,West,270,3.0,5.0,63,0.00,,,0.11,,2013-02-23 18:01:00,
2013-02-23 13:12:00,41.0,29.0,29.94,West,270,3.0,5.0,63,0.00,,,0.11,,2013-02-23 18:12:00,
2013-02-23 13:21:00,40.0,26.0,29.92,WNW,292,4.0,7.0,58,0.00,,,0.09,,2013-02-23 18:21:00,
2013-02-23 13:32:00,41.0,28.0,29.91,West,270,5.0,7.0,60,0.00,,,0.09,,2013-02-23 18:32:00,
2013-02-23 13:41:00,41.0,28.0,29.91,West,270,5.0,7.0,60,0.00,,,0.09,,2013-02-23 18:41:00,
2013-02-23 13:52:00,42.0,29.0,29.91,WNW,292,4.0,7.0,60,0.00,,,0.07,,2013-02-23 18:52:00,
2013-02-23 14:01:00,42.0,29.0,29.90,NW,315,2.0,4.0,60,0.00,,,0.07,,2013-02-23 19:01:00,
2013-02-23 14:11:00,44.0,30.0,29.90,WSW,247,3.0,6.0,57,0.00,,,0.05,,2013-02-23 19:11:00,
2013-02-23 14:21:00,44.0,30.0,29.90,WSW,247,3.0,6.0,57,0.00,,,0.05,,2013-02-23 19:21:00,
2013-02-23 14:32:00,43.0,27.0,29.91,WNW,292,7.0,10.0,53,0.00,,,0.04,,2013-02-23 19:32:00,
2013-02-23 14:42:00,43.0,27.0,29.91,WNW,292,7.0,10.0,53,0.00,,,0.04,,2013-02-23 19:42:00,
2013-02-23 14:52:00,43.0,24.0,29.91,NW,315,7.0,12.0,47,0.00,,,0.03,,2013-02-23 19:52:00,
2013-02-23 15:01:00,44.0,28.0,29.91,NW,315,5.0,7.0,54,0.00,,,0.02,,2013-02-23 20:01:00,
2013-02-23 15:11:00,44.0,28.0,29.91,NW,315,5.0,7.0,54,0.00,,,0.02,,2013-02-23 20:11:00,
2013-02-23 15:21:00,44.0,28.0,29.90,West,270,6.0,10.0,53,0.00,,,0.01,,2013-02-23 20:21:00,
2013-02-23 15:31:00,45.0,28.0,29.90,NW,315,4.0,8.0,52,0.00,,,0.01,,2013-02-23 20:31:00,
2013-02-23 15:41:00,45.0,28.0,29.90,NW,315,4.0,8.0,52,0.00,,,0.01,,2013-02-23 20:41:00,
2013-02-23 15:52:00,45.0,27.0,29.90,West,270,1.0,2.0,50,0.00,,,0.00,,2013-02-23 20:52:00,
2013-02-23 16:01:00,44.0,28.0,29.90,West,270,4.0,6.0,53,0.00,,,0.00,,2013-02-23 21:01:00,
2013-02-23 16:11:00,44.0,27.0,29.90,West,270,6.0,7.0,50,0.00,,,0.00,,2013-02-23 21:11:00,
2013-02-23 16:22:00,44.0,27.0,29.90,West,270,6.0,7.0,50,0.00,,,0.00,,2013-02-23 21:22:00,
2013-02-23 16:31:00,43.0,27.0,29.90,West,270,4.0,6.0,53,0.00,,,0.00,,2013-02-23 21:31:00,
2013-02-23 16:41:00,43.0,27.0,29.90,West,270,4.0,6.0,53,0.00,,,0.00,,2013-02-23 21:41:00,
2013-02-23 16:52:00,42.0,26.0,29.90,NNW,337,6.0,7.0,52,0.00,,,0.00,,2013-02-23 21:52:00,
2013-02-23 17:01:00,42.0,26.0,29.89,West,270,3.0,6.0,52,0.00,,,0.00,,2013-02-23 22:01:00,
2013-02-23 17:11:00,41.0,26.0,29.88,West,270,7.0,10.0,54,0.00,,,0.00,,2013-02-23 22:11:00,
2013-02-23 17:21:00,41.0,26.0,29.88,West,270,7.0,10.0,54,0.00,,,0.00,,2013-02-23 22:21:00,
2013-02-23 17:31:00,41.0,25.0,29.88,West,270,2.0,5.0,53,0.00,,,0.00,,2013-02-23 22:31:00,
2013-02-23 17:41:00,41.0,25.0,29.88,West,270,2.0,5.0,53,0.00,,,0.00,,2013-02-23 22:41:00,
2013-02-23 17:52:00,40.0,26.0,29.88,WNW,292,3.0,5.0,57,0.00,,,0.00,,2013-02-23 22:52:00,
2013-02-23 18:01:00,39.0,25.0,29.89,WNW,292,5.0,8.0,56,0.00,,,0.00,,2013-02-23 23:01:00,
2013-02-23 18:11:00,39.0,27.0,29.89,WNW,292,4.0,9.0,61,0.00,,,0.00,,2013-02-23 23:11:00,
2013-02-23 18:21:00,39.0,27.0,29.89,WNW,292,4.0,9.0,61,0.00,,,0.00,,2013-02-23 23:21:00,
2013-02-23 18:31:00,38.0,25.0,29.90,WNW,292,3.0,5.0,60,0.00,,,0.00,,2013-02-23 23:31:00,
2013-02-23 18:41:00,38.0,25.0,29.90,WNW,292,3.0,5.0,60,0.00,,,0.00,,2013-02-23 23:41:00,
2013-02-23 18:52:00,37.0,25.0,29.90,WNW,292,2.0,5.0,62,0.00,,,0.00,,2013-02-23 23:52:00,
2013-02-23 19:01:00,36.0,25.0,29.90,WNW,292,3.0,6.0,65,0.00,,,0.00,,2013-02-24 00:01:00,
2013-02-23 19:11:00,35.0,26.0,29.89,West,270,4.0,6.0,68,0.00,,,0.00,,2013-02-24 00:11:00,
2013-02-23 19:22:00,35.0,26.0,29.89,West,270,4.0,6.0,68,0.00,,,0.00,,2013-02-24 00:22:00,
2013-02-23 19:32:00,35.0,26.0,29.89,WNW,292,1.0,3.0,70,0.00,,,0.00,,2013-02-24 00:32:00,
2013-02-23 19:42:00,35.0,26.0,29.89,WNW,292,1.0,3.0,70,0.00,,,0.00,,2013-02-24 00:42:00,
2013-02-23 19:52:00,34.0,26.0,29.89,NW,315,3.0,6.0,72,0.00,,,0.00,,2013-02-24 00:52:00,
2013-02-23 20:01:00,34.0,26.0,29.89,NW,315,4.0,6.0,72,0.00,,,0.00,,2013-02-24 01:01:00,
2013-02-23 20:11:00,34.0,26.0,29.89,NW,315,4.0,6.0,72,0.00,,,0.00,,2013-02-24 01:11:00,
2013-02-23 20:22:00,33.0,25.0,29.90,NW,315,4.0,6.0,72,0.00,,,0.00,,2013-02-24 01:22:00,
2013-02-23 20:31:00,33.0,25.0,29.90,West,270,2.0,5.0,72,0.00,,,0.00,,2013-02-24 01:31:00,
2013-02-23 20:41:00,33.0,25.0,29.90,West,270,2.0,5.0,72,0.00,,,0.00,,2013-02-24 01:41:00,
2013-02-23 20:52:00,33.0,25.0,29.90,West,270,3.0,6.0,73,0.00,,,0.00,,2013-02-24 01:52:00,
2013-02-23 21:01:00,33.0,26.0,29.90,West,270,2.0,4.0,76,0.00,,,0.00,,2013-02-24 02:01:00,
2013-02-23 21:11:00,33.0,26.0,29.90,West,270,2.0,4.0,76,0.00,,,0.00,,2013-02-24 02:11:00,
2013-02-23 21:21:00,33.0,26.0,29.90,West,270,4.0,6.0,76,0.00,,,0.00,,2013-02-24 02:21:00,
2013-02-23 21:32:00,32.0,26.0,29.90,West,270,4.0,6.0,78,0.00,,,0.00,,2013-02-24 02:32:00,
2013-02-23 21:41:00,32.0,26.0,29.90,West,270,4.0,6.0,78,0.00,,,0.00,,2013-02-24 02:41:00,
2013-02-23 21:52:00,32.0,26.0,29.91,NW,315,4.0,8.0,78,0.00,,,0.00,,2013-02-24 02:52:00,
2013-02-23 22:02:00,32.0,27.0,29.91,WNW,292,3.0,5.0,80,0.00,,,0.00,,2013-02-24 03:02:00,
2013-02-23 22:11:00,31.0,26.0,29.91,West,270,3.0,4.0,80,0.00,,,0.00,,2013-02-24 03:11:00,
2013-02-23 22:21:00,31.0,26.0,29.91,West,270,3.0,4.0,80,0.00,,,0.00,,2013-02-24 03:21:00,
2013-02-23 22:31:00,30.0,25.0,29.91,WNW,292,2.0,5.0,80,0.00,,,0.00,,2013-02-24 03:31:00,
2013-02-23 22:42:00,30.0,25.0,29.91,WNW,292,2.0,5.0,80,0.00,,,0.00,,2013-02-24 03:42:00,
2013-02-23 22:52:00,30.0,25.0,29.91,NNW,337,2.0,6.0,80,0.00,,,0.00,,2013-02-24 03:52:00,
2013-02-23 23:01:00,29.0,24.0,29.90,NW,315,2.0,3.0,82,0.00,,,0.00,,2013-02-24 04:01:00,
2013-02-23 23:11:00,29.0,24.0,29.90,NW,315,2.0,3.0,82,0.00,,,0.00,,2013-02-24 04:11:00,
2013-02-23 23:21:00,29.0,25.0,29.90,NW,315,3.0,5.0,83,0.00,,,0.00,,2013-02-24 04:21:00,
2013-02-23 23:32:00,29.0,25.0,29.90,WNW,292,2.0,4.0,83,0.00,,,0.00,,2013-02-24 04:32:00,
2013-02-23 23:41:00,29.0,25.0,29.90,WNW,292,2.0,4.0,83,0.00,,,0.00,,2013-02-24 04:41:00,
2013-02-23 23:52:00,28.0,24.0,29.90,WNW,292,2.0,4.0,85,0.00,,,0.00,,2013-02-24 04:52:00,